Time;durP1;ratioP1;P1;durP2;ratioP2;P2;SDS_P1;SDS_P2;PMS_P1;PMS_P2;Temp;Humidity;BMP_temperature;BMP_pressure;BME280_temperature;BME280_humidity;BME280_pressure;Samples;Min_cycle;Max_cycle;Signal;HPM_P1;HPM_P2
2021/06/15 00:00:16;;;;;;;6.15;4.78;;;16.50;99.90;;;;;;4992991;28;20060;-76
2021/06/15 00:02:41;;;;;;;7.97;4.93;;;16.50;99.90;;;;;;4993674;28;20054;-77
2021/06/15 00:05:09;;;;;;;7.30;4.40;;;16.50;99.90;;;;;;4993882;28;20113;-78
2021/06/15 00:07:36;;;;;;;7.93;5.00;;;16.50;99.90;;;;;;4995587;28;20105;-78
2021/06/15 00:10:09;;;;;;;6.32;4.50;;;16.60;99.90;;;;;;4997638;28;20050;-76
2021/06/15 00:12:35;;;;;;;6.72;4.60;;;16.50;99.90;;;;;;4996495;28;20440;-78
2021/06/15 00:15:01;;;;;;;8.05;4.53;;;16.50;99.90;;;;;;4997624;28;20019;-78
2021/06/15 00:17:27;;;;;;;7.97;4.72;;;16.50;99.90;;;;;;4997720;28;20539;-79
2021/06/15 00:19:53;;;;;;;7.25;4.60;;;16.50;99.90;;;;;;4997492;28;20117;-76
2021/06/15 00:22:19;;;;;;;6.53;4.97;;;16.50;99.90;;;;;;4997755;28;20019;-79
2021/06/15 00:24:44;;;;;;;6.70;4.88;;;16.50;99.90;;;;;;4996958;28;20023;-77
2021/06/15 00:27:10;;;;;;;6.82;4.53;;;16.50;99.90;;;;;;4995890;28;20023;-78
2021/06/15 00:29:37;;;;;;;6.80;4.57;;;16.50;99.90;;;;;;4997465;28;20022;-78
2021/06/15 00:32:03;;;;;;;8.27;4.50;;;16.50;99.90;;;;;;4997470;28;20023;-77
2021/06/15 00:34:29;;;;;;;7.15;4.35;;;16.50;99.90;;;;;;4997452;28;20018;-76
2021/06/15 00:36:55;;;;;;;6.93;4.22;;;16.50;99.90;;;;;;4995946;28;20033;-77
2021/06/15 00:39:21;;;;;;;8.40;4.40;;;16.50;99.90;;;;;;4997101;28;20022;-78
2021/06/15 00:41:47;;;;;;;7.75;4.28;;;16.40;99.90;;;;;;4997259;28;20146;-77
2021/06/15 00:44:13;;;;;;;7.03;4.55;;;16.40;99.90;;;;;;4997155;28;20088;-77
2021/06/15 00:46:40;;;;;;;6.97;4.10;;;16.40;99.90;;;;;;4997875;28;20019;-79
2021/06/15 00:49:07;;;;;;;8.23;4.30;;;16.40;99.90;;;;;;4996905;28;20480;-76
2021/06/15 00:51:33;;;;;;;6.32;3.85;;;16.40;99.90;;;;;;4997491;28;20031;-78
2021/06/15 00:54:01;;;;;;;5.57;4.00;;;16.50;99.90;;;;;;4995683;28;20504;-76
2021/06/15 00:56:28;;;;;;;5.68;4.05;;;16.40;99.90;;;;;;4997514;28;20058;-78
2021/06/15 00:58:54;;;;;;;7.50;4.07;;;16.40;99.90;;;;;;4997037;28;20022;-76
2021/06/15 01:01:20;;;;;;;6.25;3.88;;;16.50;99.90;;;;;;4995602;28;20035;-78
2021/06/15 01:03:47;;;;;;;8.43;4.20;;;16.50;99.90;;;;;;4996447;28;20042;-77
2021/06/15 01:06:17;;;;;;;6.63;4.30;;;16.50;99.90;;;;;;4996839;28;20081;-77
2021/06/15 01:09:00;;;;;;;6.90;4.35;;;16.40;99.90;;;;;;4996731;28;20061;-77
2021/06/15 01:11:50;;;;;;;7.43;4.13;;;16.50;99.90;;;;;;4996677;28;20030;-79
2021/06/15 01:14:35;;;;;;;8.48;4.40;;;16.50;99.90;;;;;;4995251;28;20105;-78
2021/06/15 01:17:14;;;;;;;9.05;4.88;;;16.40;99.90;;;;;;4995338;28;20068;-77
2021/06/15 01:20:05;;;;;;;7.80;4.65;;;16.40;99.90;;;;;;4995655;28;20029;-77
2021/06/15 01:22:43;;;;;;;8.63;5.10;;;16.30;99.90;;;;;;4996771;28;20073;-76
2021/06/15 01:25:40;;;;;;;6.22;4.22;;;16.30;99.90;;;;;;4995386;28;20077;-79
2021/06/15 01:28:13;;;;;;;8.20;4.45;;;16.30;99.90;;;;;;4995062;28;20449;-78
2021/06/15 01:31:12;;;;;;;6.68;4.68;;;16.20;99.90;;;;;;4996706;28;20350;-77
2021/06/15 01:33:42;;;;;;;7.03;5.22;;;16.20;99.90;;;;;;4996223;28;20023;-78
2021/06/15 01:36:09;;;;;;;7.20;5.15;;;16.10;99.90;;;;;;4996193;28;20018;-78
2021/06/15 01:38:41;;;;;;;6.60;5.25;;;16.00;99.90;;;;;;4996109;28;20018;-79
2021/06/15 01:41:13;;;;;;;8.50;5.80;;;16.00;99.90;;;;;;4996237;28;20038;-79
2021/06/15 01:43:51;;;;;;;12.07;6.88;;;16.00;99.90;;;;;;4996233;28;20014;-77
2021/06/15 01:46:26;;;;;;;10.10;6.10;;;15.90;99.90;;;;;;4996291;28;20035;-77
2021/06/15 01:49:01;;;;;;;11.45;6.45;;;15.90;99.90;;;;;;4994684;28;20054;-78
2021/06/15 01:51:28;;;;;;;10.68;6.80;;;15.90;99.90;;;;;;4996221;28;20070;-77
2021/06/15 01:54:09;;;;;;;10.18;6.80;;;15.90;99.90;;;;;;4994678;28;20062;-77
2021/06/15 01:56:39;;;;;;;9.65;7.00;;;15.90;99.90;;;;;;4996244;28;20026;-78
2021/06/15 01:59:07;;;;;;;9.70;6.53;;;15.90;99.90;;;;;;4996041;28;20380;-77
2021/06/15 02:01:42;;;;;;;12.75;7.18;;;15.90;99.90;;;;;;4995664;28;20033;-78
2021/06/15 02:04:10;;;;;;;13.70;6.97;;;15.80;99.90;;;;;;4995769;28;20117;-78
2021/06/15 02:06:36;;;;;;;11.00;6.63;;;15.80;99.90;;;;;;4995635;28;20014;-78
2021/06/15 02:09:06;;;;;;;9.95;6.78;;;15.90;99.90;;;;;;4996145;28;20033;-78
2021/06/15 02:11:33;;;;;;;13.73;6.28;;;16.00;99.90;;;;;;4996049;28;20027;-77
2021/06/15 02:14:03;;;;;;;9.43;6.43;;;15.90;99.90;;;;;;4994245;28;20027;-78
2021/06/15 02:16:30;;;;;;;9.20;6.03;;;15.90;99.90;;;;;;4995561;28;20038;-78
2021/06/15 02:18:57;;;;;;;10.20;5.95;;;15.80;99.90;;;;;;4995768;28;20025;-78
2021/06/15 02:21:25;;;;;;;9.55;6.00;;;15.70;99.90;;;;;;4995298;28;20034;-78
2021/06/15 02:23:57;;;;;;;9.10;5.95;;;15.80;99.90;;;;;;4994012;28;20045;-79
2021/06/15 02:26:25;;;;;;;10.27;5.88;;;15.80;99.90;;;;;;4996118;28;20033;-78
2021/06/15 02:28:51;;;;;;;14.32;6.18;;;15.80;99.90;;;;;;4995761;28;20018;-77
2021/06/15 02:31:22;;;;;;;9.93;6.63;;;15.70;99.90;;;;;;4994827;28;20023;-79
2021/06/15 02:33:53;;;;;;;9.85;6.22;;;15.60;99.90;;;;;;4994094;28;20029;-78
2021/06/15 02:36:28;;;;;;;13.02;7.15;;;15.50;99.90;;;;;;4996026;28;20027;-78
2021/06/15 02:39:02;;;;;;;11.02;6.00;;;15.50;99.90;;;;;;4993918;28;20019;-77
2021/06/15 02:41:32;;;;;;;10.68;6.63;;;15.50;99.90;;;;;;4993893;28;20472;-85
2021/06/15 02:44:02;;;;;;;7.85;5.70;;;15.40;99.90;;;;;;4995685;28;20149;-79
2021/06/15 02:46:31;;;;;;;9.02;6.32;;;15.50;99.90;;;;;;4995179;28;20026;-77
2021/06/15 02:49:00;;;;;;;8.38;6.03;;;15.50;99.90;;;;;;4995043;28;20026;-77
2021/06/15 02:51:37;;;;;;;8.75;5.75;;;15.50;99.90;;;;;;4995027;28;20077;-80
2021/06/15 02:54:32;;;;;;;10.57;6.45;;;15.60;99.90;;;;;;4994954;28;20030;-80
2021/06/15 02:56:58;;;;;;;;;;;15.60;99.90;;;;;;4993919;28;20081;-78
2021/06/15 02:59:24;;;;;;;8.02;6.03;;;15.60;99.90;;;;;;4994742;28;19952;-76
2021/06/15 03:01:54;;;;;;;9.15;6.10;;;15.80;99.90;;;;;;4994569;28;20389;-80
2021/06/15 03:04:20;;;;;;;8.77;5.53;;;15.80;99.90;;;;;;4993587;28;20038;-80
2021/06/15 03:06:46;;;;;;;7.20;5.63;;;15.90;99.90;;;;;;4994350;28;20019;-80
2021/06/15 03:09:13;;;;;;;10.10;5.75;;;16.00;99.90;;;;;;4994979;28;20030;-80
2021/06/15 03:11:48;;;;;;;12.95;5.75;;;15.90;99.90;;;;;;4995115;28;20042;-80
2021/06/15 03:14:22;;;;;;;11.68;6.45;;;15.90;99.90;;;;;;4994614;28;20034;-78
2021/06/15 03:16:49;;;;;;;8.18;6.40;;;15.90;99.90;;;;;;4993452;28;20038;-81
2021/06/15 03:19:42;;;;;;;9.48;5.88;;;15.80;99.90;;;;;;4994628;28;20025;-80
2021/06/15 03:22:18;;;;;;;10.15;6.07;;;15.80;99.90;;;;;;4994960;28;20453;-81
2021/06/15 03:24:51;;;;;;;8.65;5.63;;;15.80;99.90;;;;;;4994540;28;20030;-80
2021/06/15 03:27:41;;;;;;;9.35;6.35;;;15.80;99.90;;;;;;4993121;28;20114;-77
2021/06/15 03:30:12;;;;;;;8.35;5.63;;;15.80;99.90;;;;;;4993108;28;20030;-81
2021/06/15 03:32:46;;;;;;;12.68;6.45;;;15.90;99.90;;;;;;4994026;28;20030;-81
2021/06/15 03:35:14;;;;;;;9.60;6.30;;;15.80;99.90;;;;;;4993171;28;20041;-80
2021/06/15 03:37:46;;;;;;;11.82;5.88;;;15.80;99.90;;;;;;4993022;28;20510;-81
2021/06/15 03:40:14;;;;;;;9.57;5.88;;;15.90;99.90;;;;;;4993015;28;20117;-81
2021/06/15 03:42:41;;;;;;;10.65;5.97;;;15.90;99.90;;;;;;4993935;28;20030;-81
2021/06/15 03:45:09;;;;;;;10.30;6.00;;;15.90;99.90;;;;;;4996908;28;20023;-80
2021/06/15 03:47:38;;;;;;;9.40;5.95;;;15.80;99.90;;;;;;4996946;28;20034;-77
2021/06/15 03:50:07;;;;;;;9.02;5.78;;;15.90;99.90;;;;;;4980910;28;20035;-76
2021/06/15 03:52:37;;;;;;;7.28;5.72;;;15.90;99.90;;;;;;4997965;28;20164;-77
2021/06/15 03:55:06;;;;;;;7.93;5.50;;;15.80;99.90;;;;;;4996900;28;20101;-81
2021/06/15 03:57:34;;;;;;;10.05;6.00;;;15.80;99.90;;;;;;4998132;28;20133;-81
2021/06/15 04:00:02;;;;;;;9.43;6.03;;;15.90;99.90;;;;;;4996732;28;20074;-76
2021/06/15 04:02:31;;;;;;;7.43;5.22;;;15.90;99.90;;;;;;4997619;28;20397;-76
2021/06/15 04:04:59;;;;;;;9.77;5.85;;;16.00;99.90;;;;;;4996769;28;20041;-80
2021/06/15 04:07:29;;;;;;;9.13;5.38;;;15.90;99.90;;;;;;4998158;28;20536;-80
2021/06/15 04:09:55;;;;;;;8.63;5.53;;;15.90;99.90;;;;;;4996691;28;20018;-81
2021/06/15 04:12:25;;;;;;;9.18;5.82;;;16.00;99.90;;;;;;4998366;28;20026;-80
2021/06/15 04:14:52;;;;;;;8.80;4.90;;;16.00;99.90;;;;;;4997668;28;20049;-77
2021/06/15 04:17:29;;;;;;;9.15;5.78;;;16.10;99.90;;;;;;4997892;28;20026;-80
2021/06/15 04:19:57;;;;;;;8.95;5.47;;;16.10;99.90;;;;;;4997626;28;20027;-80
2021/06/15 04:22:36;;;;;;;7.18;5.80;;;16.00;99.90;;;;;;4997770;28;20380;-80
2021/06/15 04:25:05;;;;;;;8.70;5.43;;;16.00;99.90;;;;;;4997957;28;20034;-80
2021/06/15 04:27:34;;;;;;;8.70;5.43;;;16.10;99.90;;;;;;4997598;28;20109;-80
2021/06/15 04:30:01;;;;;;;8.98;5.82;;;16.20;99.90;;;;;;4997552;28;20362;-77
2021/06/15 04:32:52;;;;;;;8.45;5.75;;;16.30;99.90;;;;;;4996341;28;20026;-80
2021/06/15 04:35:38;;;;;;;7.70;5.55;;;16.30;99.90;;;;;;4993481;28;20506;-79
2021/06/15 04:38:09;;;;;;;9.18;5.80;;;16.30;99.90;;;;;;4997243;28;20026;-79
2021/06/15 04:40:39;;;;;;;9.18;6.20;;;16.40;99.90;;;;;;4997298;28;20124;-80
2021/06/15 04:43:35;;;;;;;10.45;5.88;;;16.50;99.90;;;;;;4997544;28;20436;-80
2021/06/15 04:46:15;;;;;;;10.00;5.32;;;16.50;99.90;;;;;;4997379;28;20026;-81
2021/06/15 04:48:44;;;;;;;8.07;5.88;;;16.60;99.90;;;;;;4997546;28;20030;-77
2021/06/15 04:51:11;;;;;;;8.95;5.97;;;16.70;99.90;;;;;;4997796;28;20014;-81
2021/06/15 04:53:41;;;;;;;8.63;6.10;;;16.70;99.90;;;;;;4997024;28;20065;-80
2021/06/15 04:56:09;;;;;;;8.85;5.78;;;16.70;99.90;;;;;;4995979;28;20508;-81
2021/06/15 04:58:36;;;;;;;8.65;5.28;;;16.70;99.90;;;;;;4997103;28;20073;-80
2021/06/15 05:01:03;;;;;;;7.63;5.57;;;16.70;99.90;;;;;;4996585;28;20037;-79
2021/06/15 05:03:30;;;;;;;8.60;5.65;;;16.70;99.90;;;;;;4997004;28;20404;-82
2021/06/15 05:06:03;;;;;;;9.23;6.18;;;16.80;99.90;;;;;;4997142;28;20022;-78
2021/06/15 05:08:33;;;;;;;9.02;6.00;;;16.80;99.90;;;;;;4997010;28;20469;-81
2021/06/15 05:11:02;;;;;;;10.10;6.15;;;16.80;99.90;;;;;;4997227;28;20018;-81
2021/06/15 05:13:31;;;;;;;9.75;5.90;;;16.80;99.90;;;;;;4995536;28;20034;-80
2021/06/15 05:15:59;;;;;;;8.50;5.38;;;16.90;99.90;;;;;;4997201;28;20034;-81
2021/06/15 05:18:25;;;;;;;6.65;5.28;;;16.90;99.90;;;;;;4995363;28;20046;-79
2021/06/15 05:20:51;;;;;;;8.50;5.95;;;16.90;99.90;;;;;;4996354;28;20571;-79
2021/06/15 05:23:31;;;;;;;7.65;6.05;;;17.10;99.90;;;;;;4995243;28;20031;-81
2021/06/15 05:25:57;;;;;;;9.25;6.10;;;17.00;99.90;;;;;;4996553;28;20026;-78
2021/06/15 05:28:23;;;;;;;10.10;5.25;;;17.20;99.90;;;;;;4996619;28;20049;-81
2021/06/15 05:30:49;;;;;;;8.80;5.68;;;17.20;99.90;;;;;;4996521;28;20023;-81
2021/06/15 05:33:15;;;;;;;8.30;5.45;;;17.30;99.90;;;;;;4995125;28;20022;-80
2021/06/15 05:35:42;;;;;;;10.77;5.72;;;;;;;;;;4996295;28;20026;-81
2021/06/15 05:38:10;;;;;;;8.57;5.50;;;17.50;99.90;;;;;;4994815;28;20116;-80
2021/06/15 05:40:37;;;;;;;9.07;5.30;;;17.50;99.90;;;;;;4994874;28;20026;-80
2021/06/15 05:43:05;;;;;;;7.28;4.95;;;17.50;99.90;;;;;;4994882;28;20050;-78
2021/06/15 05:45:35;;;;;;;10.73;5.18;;;17.60;99.90;;;;;;4994883;28;20030;-81
2021/06/15 05:48:01;;;;;;;8.30;5.45;;;17.50;99.90;;;;;;4994792;28;20072;-79
2021/06/15 05:50:27;;;;;;;9.25;5.28;;;17.60;99.90;;;;;;4996454;28;20377;-80
2021/06/15 05:52:53;;;;;;;8.48;5.10;;;17.60;99.90;;;;;;4994650;28;20030;-80
2021/06/15 05:55:22;;;;;;;8.73;5.28;;;17.60;99.90;;;;;;4995773;28;20026;-80
2021/06/15 05:57:49;;;;;;;10.07;5.78;;;17.60;99.90;;;;;;4994762;28;20030;-85
2021/06/15 06:00:15;;;;;;;7.25;4.90;;;17.80;99.90;;;;;;4995800;28;20033;-82
2021/06/15 06:02:41;;;;;;;5.72;4.60;;;18.00;99.90;;;;;;4994342;28;20046;-78
2021/06/15 06:08:09;;;;;;;8.48;4.72;;;18.00;99.90;;;;;;4955495;28;20046;-77
2021/06/15 06:10:36;;;;;;;6.57;4.53;;;18.20;99.90;;;;;;4995873;28;20076;-82
2021/06/15 06:13:07;;;;;;;7.05;4.43;;;18.30;99.90;;;;;;4994641;28;20440;-77
2021/06/15 06:15:33;;;;;;;7.63;3.75;;;18.50;99.90;;;;;;4995395;28;20053;-78
2021/06/15 06:18:11;;;;;;;6.85;3.85;;;18.70;99.90;;;;;;4994167;28;20404;-79
2021/06/15 06:20:43;;;;;;;7.35;3.60;;;18.60;99.90;;;;;;4995677;28;20031;-82
2021/06/15 06:23:09;;;;;;;5.80;3.08;;;18.70;99.90;;;;;;4995639;28;20031;-78
2021/06/15 06:25:36;;;;;;;4.85;3.20;;;18.70;99.90;;;;;;4995483;28;20034;-79
2021/06/15 06:28:03;;;;;;;5.53;3.10;;;18.80;99.90;;;;;;4995327;28;20041;-78
2021/06/15 06:30:30;;;;;;;5.03;3.28;;;18.70;99.90;;;;;;4993838;28;20058;-78
2021/06/15 06:32:56;;;;;;;5.07;3.38;;;18.90;99.90;;;;;;4994999;28;20026;-76
2021/06/15 06:35:22;;;;;;;6.88;3.10;;;19.00;99.90;;;;;;4995073;28;20101;-77
2021/06/15 06:37:48;;;;;;;4.70;2.80;;;19.10;99.90;;;;;;4994898;28;20077;-76
2021/06/15 06:40:15;;;;;;;4.72;2.60;;;18.90;99.90;;;;;;4994890;28;20077;-76
2021/06/15 06:42:41;;;;;;;4.78;2.90;;;19.10;99.90;;;;;;4993748;28;20112;-77
2021/06/15 06:45:08;;;;;;;4.28;2.50;;;19.20;99.90;;;;;;4994485;28;20030;-77
2021/06/15 06:47:34;;;;;;;4.50;2.50;;;19.10;99.90;;;;;;4994874;28;20019;-78
2021/06/15 06:50:00;;;;;;;4.07;2.22;;;19.00;99.90;;;;;;4994854;28;20018;-76
2021/06/15 06:52:26;;;;;;;7.68;3.08;;;19.20;99.90;;;;;;4994496;28;20018;-75
2021/06/15 06:54:51;;;;;;;4.25;2.78;;;19.20;99.90;;;;;;4990726;28;20042;-76
2021/06/15 06:57:17;;;;;;;3.28;2.28;;;19.20;99.90;;;;;;4992076;28;20026;-75
2021/06/15 06:59:43;;;;;;;5.28;2.60;;;19.40;99.90;;;;;;4992353;28;20148;-75
2021/06/15 07:02:09;;;;;;;5.00;2.60;;;19.40;99.90;;;;;;4992077;28;20472;-75
2021/06/15 07:04:35;;;;;;;3.90;2.20;;;19.40;99.90;;;;;;4991909;28;20023;-75
2021/06/15 07:07:01;;;;;;;4.45;2.35;;;19.40;99.90;;;;;;4974102;28;20480;-76
2021/06/15 07:09:27;;;;;;;4.57;1.92;;;;;;;;;;4991092;28;20026;-76
2021/06/15 07:11:53;;;;;;;5.15;2.50;;;19.90;99.90;;;;;;4993156;28;20030;-78
2021/06/15 07:14:19;;;;;;;4.60;2.08;;;20.30;99.90;;;;;;4993662;28;20379;-78
2021/06/15 07:16:44;;;;;;;5.00;2.30;;;20.40;99.90;;;;;;4976227;28;20050;-75
2021/06/15 07:19:10;;;;;;;3.00;1.95;;;20.50;99.90;;;;;;4993805;28;20072;-78
2021/06/15 07:21:37;;;;;;;5.07;2.20;;;20.80;99.90;;;;;;4994423;28;20117;-77
2021/06/15 07:24:03;;;;;;;5.60;1.80;;;21.00;98.60;;;;;;4994271;28;20434;-76
2021/06/15 07:26:29;;;;;;;4.35;2.03;;;21.30;98.20;;;;;;4993841;28;20037;-78
2021/06/15 07:28:55;;;;;;;5.28;2.30;;;21.50;97.70;;;;;;4976529;28;20119;-77
2021/06/15 07:31:21;;;;;;;4.18;1.90;;;21.80;98.40;;;;;;4976623;28;20112;-78
2021/06/15 07:33:47;;;;;;;4.75;2.10;;;21.50;95.20;;;;;;4976752;28;20034;-77
2021/06/15 07:36:13;;;;;;;4.35;1.77;;;21.40;95.30;;;;;;4994312;28;20382;-77
2021/06/15 07:38:39;;;;;;;2.80;2.00;;;21.50;96.00;;;;;;4994197;28;20049;-77
2021/06/15 07:41:05;;;;;;;3.42;1.98;;;21.50;94.40;;;;;;4976267;28;20030;-77
2021/06/15 07:43:32;;;;;;;4.18;1.70;;;21.50;95.20;;;;;;4994495;28;20022;-77
2021/06/15 07:45:58;;;;;;;3.83;1.75;;;21.80;94.80;;;;;;4976884;28;20034;-74
2021/06/15 07:48:24;;;;;;;3.38;1.67;;;22.20;95.10;;;;;;4976582;28;20051;-73
2021/06/15 07:50:50;;;;;;;4.55;1.98;;;22.40;94.20;;;;;;4994127;28;20023;-76
2021/06/15 07:53:18;;;;;;;4.82;1.98;;;22.40;93.00;;;;;;4993965;28;20030;-77
2021/06/15 07:55:43;;;;;;;4.47;1.60;;;22.50;94.30;;;;;;4994080;28;20030;-77
2021/06/15 07:58:13;;;;;;;2.80;1.70;;;22.30;92.10;;;;;;4993665;28;20029;-79
2021/06/15 08:00:39;;;;;;;4.00;1.65;;;22.40;92.10;;;;;;4993694;28;20089;-77
2021/06/15 08:03:05;;;;;;;3.40;1.58;;;22.50;91.40;;;;;;4972762;28;20049;-75
2021/06/15 08:05:31;;;;;;;5.68;1.55;;;22.90;92.00;;;;;;4973185;28;20062;-73
2021/06/15 08:07:57;;;;;;;3.17;1.60;;;22.80;90.20;;;;;;4974740;28;20054;-76
2021/06/15 08:10:25;;;;;;;3.33;1.70;;;22.60;91.50;;;;;;4973744;28;20320;-76
2021/06/15 08:12:51;;;;;;;3.33;1.70;;;22.90;91.60;;;;;;4973049;28;20059;-75
2021/06/15 08:15:17;;;;;;;3.33;1.50;;;22.80;90.30;;;;;;4973064;28;20030;-78
2021/06/15 08:17:47;;;;;;;3.00;1.70;;;22.80;91.20;;;;;;4973086;28;20089;-73
2021/06/15 08:20:13;;;;;;;3.70;1.80;;;22.90;90.50;;;;;;4973084;28;20125;-76
2021/06/15 08:22:39;;;;;;;4.10;1.60;;;22.80;89.30;;;;;;4973050;28;20027;-76
2021/06/15 08:25:07;;;;;;;2.80;1.63;;;22.60;89.70;;;;;;4972984;28;20038;-76
2021/06/15 08:27:35;;;;;;;3.08;1.80;;;22.60;91.80;;;;;;4974215;28;20219;-77
2021/06/15 08:30:02;;;;;;;3.63;1.60;;;22.80;91.20;;;;;;4976138;28;20072;-75
2021/06/15 08:32:28;;;;;;;6.50;4.25;;;22.60;88.20;;;;;;4977653;28;20023;-75
2021/06/15 08:34:54;;;;;;;3.67;1.70;;;22.90;91.80;;;;;;4976973;28;20023;-72
2021/06/15 08:37:20;;;;;;;3.65;1.77;;;22.60;89.30;;;;;;4974899;28;20082;-73
2021/06/15 08:39:46;;;;;;;3.35;1.70;;;23.10;91.60;;;;;;4976467;28;20026;-73
2021/06/15 08:42:15;;;;;;;3.30;1.90;;;23.60;91.20;;;;;;4975138;28;20085;-74
2021/06/15 08:44:45;;;;;;;3.90;2.10;;;24.00;89.50;;;;;;4976529;28;20481;-75
2021/06/15 08:47:14;;;;;;;3.95;1.98;;;23.90;90.10;;;;;;4976459;28;20019;-74
2021/06/15 08:49:43;;;;;;;2.95;1.90;;;23.40;87.70;;;;;;4975493;28;20037;-76
2021/06/15 08:52:09;;;;;;;3.65;1.80;;;23.60;91.30;;;;;;4977189;28;20023;-76
2021/06/15 08:54:37;;;;;;;4.65;2.50;;;23.40;89.40;;;;;;4976004;28;20027;-75
2021/06/15 08:57:04;;;;;;;3.90;2.20;;;23.60;90.50;;;;;;4977415;28;20034;-75
2021/06/15 08:59:30;;;;;;;4.22;2.15;;;23.50;91.00;;;;;;4977122;28;20117;-76
2021/06/15 09:02:06;;;;;;;4.93;1.98;;;23.50;90.50;;;;;;4977085;28;20090;-73
2021/06/15 09:04:34;;;;;;;2.78;1.80;;;23.60;92.40;;;;;;4996693;28;20054;-77
2021/06/15 09:07:00;;;;;;;5.35;2.17;;;23.60;90.00;;;;;;4996275;28;20065;-73
2021/06/15 09:09:48;;;;;;;4.53;2.05;;;23.30;90.70;;;;;;4996125;28;20030;-75
2021/06/15 09:12:22;;;;;;;3.92;2.30;;;23.30;90.20;;;;;;4996625;28;20092;-76
2021/06/15 09:14:51;;;;;;;3.80;2.03;;;23.10;91.20;;;;;;4996617;28;20030;-77
2021/06/15 09:17:27;;;;;;;4.30;2.30;;;23.10;91.00;;;;;;4996322;28;20022;-76
2021/06/15 09:20:02;;;;;;;5.15;2.38;;;22.70;91.60;;;;;;4978814;28;20077;-75
2021/06/15 09:22:33;;;;;;;6.55;2.30;;;22.60;92.00;;;;;;4996308;28;20041;-73
2021/06/15 09:25:04;;;;;;;4.00;2.13;;;22.70;91.60;;;;;;4996591;28;20018;-74
2021/06/15 09:27:35;;;;;;;4.63;2.25;;;22.50;92.00;;;;;;4978887;28;20477;-77
2021/06/15 09:30:07;;;;;;;3.80;2.10;;;22.60;92.60;;;;;;4978808;28;20018;-78
2021/06/15 09:32:39;;;;;;;5.00;2.47;;;22.60;91.90;;;;;;4995971;28;20500;-74
2021/06/15 09:35:17;;;;;;;4.50;2.20;;;22.70;91.40;;;;;;4996219;28;20030;-77
2021/06/15 09:37:45;;;;;;;3.30;1.90;;;22.60;92.20;;;;;;4996519;28;20034;-77
2021/06/15 09:40:31;;;;;;;4.88;2.20;;;22.70;92.40;;;;;;4995118;28;20384;-76
2021/06/15 09:43:10;;;;;;;4.47;2.50;;;22.60;91.80;;;;;;4996177;28;20026;-77
2021/06/15 09:45:47;;;;;;;4.03;2.47;;;22.80;92.60;;;;;;4996289;28;20072;-77
2021/06/15 09:48:28;;;;;;;3.72;2.00;;;23.00;91.60;;;;;;4996277;28;20081;-77
2021/06/15 09:51:00;;;;;;;3.90;2.00;;;23.10;91.90;;;;;;4996203;28;20025;-74
2021/06/15 09:53:44;;;;;;;5.80;2.25;;;23.10;90.90;;;;;;4996010;28;20019;-76
2021/06/15 09:56:13;;;;;;;4.93;2.10;;;23.00;90.60;;;;;;4978578;28;20512;-77
2021/06/15 09:58:43;;;;;;;3.08;2.10;;;22.90;90.50;;;;;;4995932;28;20073;-77
2021/06/15 10:01:10;;;;;;;4.20;2.10;;;23.30;90.70;;;;;;4978203;28;20053;-77
2021/06/15 10:03:36;;;;;;;6.00;2.10;;;23.30;89.90;;;;;;4995378;28;20061;-76
2021/06/15 10:06:04;;;;;;;4.30;2.00;;;23.50;89.40;;;;;;4995819;28;20018;-77
2021/06/15 10:08:46;;;;;;;4.43;2.00;;;24.00;88.10;;;;;;4995794;28;20427;-77
2021/06/15 10:11:12;;;;;;;4.20;2.00;;;24.40;87.40;;;;;;4995888;28;20018;-74
2021/06/15 10:13:38;;;;;;;6.72;2.20;;;24.90;84.00;;;;;;4978088;28;20027;-77
2021/06/15 10:16:05;;;;;;;6.10;2.10;;;24.40;84.40;;;;;;4978494;28;20054;-75
2021/06/15 10:18:33;;;;;;;3.67;2.00;;;24.30;85.10;;;;;;4995442;28;20022;-77
2021/06/15 10:20:59;;;;;;;11.57;2.30;;;24.40;87.40;;;;;;4995343;28;20042;-77
2021/06/15 10:23:25;;;;;;;6.43;1.95;;;24.10;89.40;;;;;;4977989;28;20023;-79
2021/06/15 10:25:51;;;;;;;6.03;2.13;;;24.50;87.20;;;;;;4978180;28;20480;-77
2021/06/15 10:28:17;;;;;;;4.25;2.13;;;25.20;88.30;;;;;;4977733;28;20113;-78
2021/06/15 10:30:44;;;;;;;3.40;2.00;;;25.30;87.20;;;;;;4978227;28;20117;-74
2021/06/15 10:33:23;;;;;;;3.65;2.05;;;25.00;83.00;;;;;;4977873;28;20485;-78
2021/06/15 10:35:52;;;;;;;3.33;2.10;;;25.10;85.90;;;;;;4978256;28;20085;-78
2021/06/15 10:38:30;;;;;;;4.85;2.30;;;25.60;85.50;;;;;;4995340;28;20507;-78
2021/06/15 10:41:00;;;;;;;3.67;1.95;;;26.10;83.50;;;;;;4994786;28;20045;-74
2021/06/15 10:43:38;;;;;;;3.65;1.95;;;26.20;83.70;;;;;;4995218;28;20031;-85
2021/06/15 10:46:11;;;;;;;4.82;2.00;;;26.10;83.10;;;;;;4977759;28;20041;-75
2021/06/15 10:49:01;;;;;;;5.88;1.90;;;25.70;81.50;;;;;;4977949;28;20023;-84
2021/06/15 10:51:37;;;;;;;2.80;1.80;;;25.30;83.20;;;;;;4994192;28;20063;-84
2021/06/15 10:54:30;;;;;;;4.43;2.20;;;25.30;84.90;;;;;;4977845;28;20511;-85
2021/06/15 10:57:24;;;;;;;7.55;2.40;;;25.10;83.10;;;;;;4995376;28;20042;-82
2021/06/15 11:00:06;;;;;;;4.03;1.67;;;25.10;82.30;;;;;;4987237;28;20037;-86
2021/06/15 11:02:33;;;;;;;4.03;2.13;;;25.50;83.60;;;;;;4994873;28;20050;-85
2021/06/15 11:05:37;;;;;;;4.10;1.95;;;25.80;81.40;;;;;;5001564;23;20058;-77
2021/06/15 11:08:18;;;;;;;3.53;2.10;;;26.00;85.30;;;;;;4994559;28;20058;-76
2021/06/15 11:10:56;;;;;;;3.58;1.90;;;25.90;78.40;;;;;;4994570;28;20023;-77
2021/06/15 11:13:43;;;;;;;3.72;1.90;;;25.80;79.80;;;;;;4977107;28;20386;-78
2021/06/15 11:16:22;;;;;;;5.05;1.73;;;25.40;78.80;;;;;;4976916;28;20105;-85
2021/06/15 11:19:08;;;;;;;3.65;2.10;;;25.30;83.00;;;;;;4976849;28;20022;-76
2021/06/15 11:22:02;;;;;;;5.88;1.90;;;25.10;81.50;;;;;;4993200;28;20042;-78
2021/06/15 11:24:39;;;;;;;4.55;2.00;;;25.00;81.20;;;;;;4977014;28;20381;-79
2021/06/15 11:27:12;;;;;;;4.47;1.98;;;25.10;81.60;;;;;;4976466;28;20030;-76
2021/06/15 11:29:43;;;;;;;3.80;2.10;;;25.50;82.00;;;;;;4993781;28;20038;-79
2021/06/15 11:32:18;;;;;;;5.05;2.10;;;25.60;80.90;;;;;;4994495;28;20116;-78
2021/06/15 11:34:54;;;;;;;6.82;2.13;;;25.90;80.50;;;;;;4994717;28;20054;-74
2021/06/15 11:37:28;;;;;;;3.67;2.05;;;25.80;81.30;;;;;;4994506;28;20019;-77
2021/06/15 11:40:14;;;;;;;5.10;2.05;;;26.00;81.20;;;;;;4994515;28;20076;-77
2021/06/15 11:42:40;;;;;;;5.35;2.00;;;26.00;83.80;;;;;;4976824;28;20100;-77
2021/06/15 11:45:31;;;;;;;4.53;2.20;;;25.80;83.80;;;;;;4993803;28;20477;-74
2021/06/15 11:48:22;;;;;;;5.50;2.00;;;25.70;84.20;;;;;;4973114;28;20069;-78
2021/06/15 11:50:51;;;;;;;5.18;2.10;;;25.50;80.80;;;;;;4972635;28;20039;-75
2021/06/15 11:53:21;;;;;;;4.28;2.28;;;25.10;81.30;;;;;;4956548;28;20050;-79
2021/06/15 11:55:57;;;;;;;3.67;1.77;;;25.20;82.80;;;;;;4972954;28;20027;-75
2021/06/15 11:58:30;;;;;;;3.95;1.90;;;25.70;81.40;;;;;;4972993;28;20042;-79
2021/06/15 12:01:02;;;;;;;3.08;1.80;;;25.90;77.40;;;;;;4956232;28;20034;-75
2021/06/15 12:03:32;;;;;;;2.95;1.70;;;26.80;81.80;;;;;;4972985;28;20515;-78
2021/06/15 12:05:59;;;;;;;3.13;1.80;;;27.00;80.50;;;;;;4976666;28;20134;-78
2021/06/15 12:08:30;;;;;;;4.18;1.70;;;26.80;80.40;;;;;;4976247;28;20031;-76
2021/06/15 12:10:56;;;;;;;2.85;1.77;;;26.70;78.60;;;;;;4959961;28;20066;-77
2021/06/15 12:13:24;;;;;;;3.10;1.90;;;26.10;77.20;;;;;;4959991;28;20385;-78
2021/06/15 12:15:53;;;;;;;4.68;1.80;;;25.90;78.00;;;;;;4976538;28;20027;-75
2021/06/15 12:18:21;;;;;;;2.67;1.77;;;25.60;79.70;;;;;;4976343;28;20543;-78
2021/06/15 12:20:50;;;;;;;3.35;1.75;;;25.60;79.80;;;;;;4975985;28;20064;-77
2021/06/15 12:23:28;;;;;;;5.20;2.40;;;25.30;77.40;;;;;;4976284;28;20034;-78
2021/06/15 12:26:02;;;;;;;3.53;1.83;;;25.30;79.40;;;;;;4996023;28;20439;-77
2021/06/15 12:28:28;;;;;;;4.18;1.85;;;25.40;82.10;;;;;;4997929;28;20480;-80
2021/06/15 12:31:05;;;;;;;6.22;2.20;;;25.30;78.20;;;;;;4997755;28;20057;-77
2021/06/15 12:33:32;;;;;;;3.97;2.10;;;25.30;81.30;;;;;;4979144;28;20053;-75
2021/06/15 12:36:00;;;;;;;5.78;1.98;;;25.40;82.80;;;;;;4997006;28;20036;-78
2021/06/15 12:38:26;;;;;;;5.68;2.10;;;25.50;79.60;;;;;;4979521;28;20105;-74
2021/06/15 12:40:53;;;;;;;3.80;1.80;;;25.60;83.20;;;;;;4996776;28;20034;-78
2021/06/15 12:43:23;;;;;;;2.60;1.75;;;25.30;79.80;;;;;;4997055;28;20106;-76
2021/06/15 12:45:49;;;;;;;4.22;1.90;;;25.20;82.20;;;;;;4997056;28;20031;-77
2021/06/15 12:48:23;;;;;;;6.43;1.88;;;25.20;82.10;;;;;;4996894;28;20037;-77
2021/06/15 12:51:10;;;;;;;4.60;2.03;;;25.10;81.30;;;;;;4996797;28;20102;-77
2021/06/15 12:53:39;;;;;;;4.93;2.40;;;25.00;82.00;;;;;;4996850;28;20026;-79
2021/06/15 12:56:26;;;;;;;2.90;1.70;;;24.90;80.40;;;;;;4996991;28;20030;-78
2021/06/15 12:58:57;;;;;;;4.72;1.98;;;24.80;81.60;;;;;;4979314;28;20173;-76
2021/06/15 13:01:34;;;;;;;3.10;1.55;;;24.70;82.70;;;;;;4996625;28;20401;-78
2021/06/15 13:04:23;;;;;;;4.03;1.77;;;24.60;83.30;;;;;;4996254;28;20531;-81
2021/06/15 13:06:51;;;;;;;2.53;1.83;;;24.50;84.00;;;;;;4979285;28;20555;-82